Time;durP1;ratioP1;P1;durP2;ratioP2;P2;SDS_P1;SDS_P2;PMS_P1;PMS_P2;Temp;Humidity;BMP_temperature;BMP_pressure;BME280_temperature;BME280_humidity;BME280_pressure;Samples;Min_cycle;Max_cycle;Signal;HPM_P1;HPM_P2
2023/04/25 00:00:26;;;;;;;4.07;3.20;;;12.00;1.00;;;;;;5048808;28;20613;-61
2023/04/25 00:02:52;;;;;;;4.00;3.30;;;11.90;1.00;;;;;;5050659;28;20458;-62
2023/04/25 00:05:19;;;;;;;3.30;3.00;;;12.00;1.00;;;;;;5045985;28;20188;-62
2023/04/25 00:07:45;;;;;;;3.67;3.37;;;12.10;1.00;;;;;;5051675;28;20184;-61
2023/04/25 00:10:11;;;;;;;3.87;2.90;;;12.10;1.00;;;;;;5048599;28;20543;-63
2023/04/25 00:12:38;;;;;;;3.53;3.23;;;12.20;1.00;;;;;;5051157;28;20431;-64
2023/04/25 00:15:05;;;;;;;3.40;3.10;;;12.30;1.00;;;;;;5048128;28;21057;-61
2023/04/25 00:17:31;;;;;;;3.23;2.93;;;12.20;1.00;;;;;;5049354;28;20549;-62
2023/04/25 00:19:58;;;;;;;4.33;3.70;;;12.10;1.00;;;;;;5051255;28;20435;-62
2023/04/25 00:22:23;;;;;;;3.70;3.40;;;12.20;1.00;;;;;;5048775;28;20493;-62
2023/04/25 00:24:50;;;;;;;5.63;3.93;;;12.30;1.00;;;;;;5047762;28;20470;-61
2023/04/25 00:27:15;;;;;;;4.87;3.63;;;12.20;1.00;;;;;;5048782;28;20184;-63
2023/04/25 00:29:41;;;;;;;5.23;3.90;;;12.10;1.00;;;;;;5049991;28;20446;-63
2023/04/25 00:32:06;;;;;;;3.87;3.07;;;12.10;1.00;;;;;;5050073;28;20250;-62
2023/04/25 00:34:32;;;;;;;4.70;3.60;;;12.10;1.00;;;;;;5046211;28;20188;-61
2023/04/25 00:36:58;;;;;;;4.90;3.70;;;11.90;1.00;;;;;;5044367;28;20192;-61
2023/04/25 00:39:23;;;;;;;6.53;3.10;;;11.90;1.00;;;;;;5050921;28;20177;-62
2023/04/25 00:41:53;;;;;;;3.60;3.30;;;12.00;1.00;;;;;;5048316;28;20270;-62
2023/04/25 00:44:19;;;;;;;5.10;3.73;;;12.10;1.00;;;;;;5048802;28;20176;-62
2023/04/25 00:46:50;;;;;;;4.00;3.60;;;12.00;1.00;;;;;;5045376;28;21399;-62
2023/04/25 00:49:16;;;;;;;3.30;3.00;;;12.00;1.00;;;;;;5049702;28;20504;-61
2023/04/25 00:51:43;;;;;;;4.13;3.60;;;12.00;1.00;;;;;;5049794;28;20537;-62
2023/04/25 00:54:11;;;;;;;4.37;3.33;;;11.90;1.00;;;;;;5049638;28;20465;-60
2023/04/25 00:56:37;;;;;;;4.43;4.03;;;11.80;1.00;;;;;;5049134;28;20510;-61
2023/04/25 00:59:03;;;;;;;7.00;4.60;;;11.80;1.00;;;;;;5045981;28;20494;-62
2023/04/25 01:01:29;;;;;;;5.40;4.57;;;11.70;1.00;;;;;;5049822;28;20554;-62
2023/04/25 01:03:56;;;;;;;4.90;4.50;;;11.50;1.00;;;;;;5048993;28;20447;-61
2023/04/25 01:06:22;;;;;;;4.67;4.17;;;11.40;1.00;;;;;;5041639;28;21000;-62
2023/04/25 01:08:48;;;;;;;4.63;4.23;;;11.30;1.00;;;;;;5051555;28;20444;-61
2023/04/25 01:11:13;;;;;;;4.30;3.90;;;11.30;1.00;;;;;;5044906;28;20654;-62
2023/04/25 01:13:39;;;;;;;6.13;4.20;;;11.20;1.00;;;;;;5048141;28;20447;-61
2023/04/25 01:16:05;;;;;;;6.03;4.30;;;11.10;1.00;;;;;;5048805;28;20180;-61
2023/04/25 01:18:31;;;;;;;5.00;4.50;;;11.20;1.00;;;;;;5050159;28;20200;-62
2023/04/25 01:21:07;;;;;;;5.23;4.33;;;11.30;1.00;;;;;;5046484;28;20439;-63
2023/04/25 01:23:33;;;;;;;10.20;5.50;;;11.20;1.00;;;;;;5049926;28;20226;-62
2023/04/25 01:25:59;;;;;;;4.87;4.37;;;11.20;1.00;;;;;;5045362;28;20443;-62
2023/04/25 01:28:25;;;;;;;5.97;4.30;;;11.10;1.00;;;;;;5049434;28;20545;-61
2023/04/25 01:30:51;;;;;;;5.23;4.33;;;11.00;1.00;;;;;;5047127;28;20450;-62
2023/04/25 01:33:19;;;;;;;5.93;5.20;;;11.00;1.00;;;;;;5048040;28;20267;-61
2023/04/25 01:35:44;;;;;;;7.33;4.87;;;11.00;1.00;;;;;;5046377;28;21024;-62
2023/04/25 01:38:11;;;;;;;6.37;4.77;;;11.00;1.00;;;;;;5045096;28;20567;-61
2023/04/25 01:40:39;;;;;;;10.27;5.30;;;10.90;1.00;;;;;;5046978;28;20716;-61
2023/04/25 01:43:06;;;;;;;5.33;4.80;;;10.90;1.00;;;;;;5049876;28;20427;-61
2023/04/25 01:45:32;;;;;;;5.77;4.90;;;10.90;1.00;;;;;;5046561;28;20447;-62
2023/04/25 01:47:59;;;;;;;5.60;4.90;;;10.70;1.00;;;;;;5044223;28;20450;-61
2023/04/25 01:50:25;;;;;;;6.67;5.20;;;10.70;1.00;;;;;;5053494;28;20447;-59
2023/04/25 01:52:51;;;;;;;7.30;5.67;;;10.60;1.00;;;;;;5048389;28;20447;-60
2023/04/25 01:55:16;;;;;;;5.33;4.60;;;10.60;1.00;;;;;;5047074;28;20531;-60
2023/04/25 01:57:42;;;;;;;6.03;4.77;;;10.60;1.00;;;;;;5065738;28;20211;-60
2023/04/25 02:00:09;;;;;;;5.33;4.93;;;10.50;1.00;;;;;;5046879;28;20184;-61
2023/04/25 02:02:35;;;;;;;6.03;5.13;;;10.60;1.00;;;;;;5049068;28;20307;-60
2023/04/25 02:05:01;;;;;;;7.27;5.03;;;10.60;1.00;;;;;;5044478;28;20445;-60
2023/04/25 02:07:27;;;;;;;5.50;5.00;;;10.60;1.00;;;;;;5044098;28;20956;-60
2023/04/25 02:09:52;;;;;;;4.97;4.57;;;10.60;1.00;;;;;;5049247;28;20440;-62
2023/04/25 02:12:18;;;;;;;6.77;4.73;;;10.60;1.00;;;;;;5046338;28;20347;-61
2023/04/25 02:14:43;;;;;;;6.93;4.83;;;10.50;1.00;;;;;;5048367;28;20188;-60
2023/04/25 02:17:09;;;;;;;6.03;4.70;;;10.60;1.00;;;;;;5044779;28;20562;-60
2023/04/25 02:19:35;;;;;;;5.13;4.63;;;10.60;1.00;;;;;;5042837;28;20185;-60
2023/04/25 02:22:01;;;;;;;4.73;3.87;;;10.50;1.00;;;;;;5048172;28;20454;-61
2023/04/25 02:24:27;;;;;;;8.27;5.10;;;10.50;1.00;;;;;;5043263;28;20654;-61
2023/04/25 02:26:55;;;;;;;6.97;4.87;;;10.50;1.00;;;;;;5048406;28;20197;-60
2023/04/25 02:29:21;;;;;;;5.57;4.90;;;10.40;1.00;;;;;;5043742;28;20431;-61
2023/04/25 02:31:46;;;;;;;6.20;4.60;;;10.60;1.00;;;;;;5048988;28;20770;-61
2023/04/25 02:34:12;;;;;;;9.13;5.33;;;10.60;1.00;;;;;;5045538;28;20195;-61
2023/04/25 02:36:37;;;;;;;7.23;5.23;;;10.50;1.00;;;;;;5045243;28;20695;-60
2023/04/25 02:39:03;;;;;;;6.20;4.70;;;10.50;1.00;;;;;;5042076;28;20208;-60
2023/04/25 02:41:29;;;;;;;4.90;4.13;;;10.50;1.00;;;;;;5045626;28;20254;-59
2023/04/25 02:43:54;;;;;;;5.87;4.67;;;10.50;1.00;;;;;;5046445;28;20239;-60
2023/04/25 02:46:20;;;;;;;9.00;4.20;;;10.50;1.00;;;;;;5044711;28;20180;-61
2023/04/25 02:48:46;;;;;;;5.53;4.77;;;10.40;1.00;;;;;;5047616;28;20278;-61
2023/04/25 02:51:12;;;;;;;5.70;5.07;;;10.40;1.00;;;;;;5039575;28;20184;-61
2023/04/25 02:53:37;;;;;;;7.23;5.30;;;10.40;1.00;;;;;;5067048;28;20175;-59
2023/04/25 02:56:03;;;;;;;6.70;5.20;;;10.40;1.00;;;;;;5048663;28;20266;-60
2023/04/25 02:58:29;;;;;;;7.17;5.33;;;10.30;1.00;;;;;;5048551;28;20212;-61
2023/04/25 03:00:55;;;;;;;4.83;4.40;;;10.40;1.00;;;;;;5042867;28;20526;-61
2023/04/25 03:03:23;;;;;;;6.53;4.33;;;10.30;1.00;;;;;;5046679;28;20179;-60
2023/04/25 03:05:50;;;;;;;9.10;5.10;;;10.40;1.00;;;;;;5043072;28;20200;-60
2023/04/25 03:08:16;;;;;;;5.70;5.20;;;10.40;1.00;;;;;;5048423;28;20466;-59
2023/04/25 03:10:42;;;;;;;6.73;4.57;;;10.30;1.00;;;;;;5044506;28;20446;-60
2023/04/25 03:13:07;;;;;;;7.50;4.93;;;10.20;1.00;;;;;;5048865;28;20530;-61
2023/04/25 03:15:33;;;;;;;6.80;5.23;;;10.20;1.00;;;;;;5043139;28;22388;-61
2023/04/25 03:17:59;;;;;;;8.20;5.60;;;10.20;1.00;;;;;;5046987;28;20209;-60
2023/04/25 03:20:24;;;;;;;5.43;4.60;;;10.10;1.00;;;;;;5044025;28;20242;-61
2023/04/25 03:22:50;;;;;;;5.17;4.67;;;10.20;1.00;;;;;;5045106;28;20300;-60
2023/04/25 03:25:16;;;;;;;6.13;5.27;;;10.10;1.00;;;;;;5046460;28;20212;-58
2023/04/25 03:27:41;;;;;;;9.40;5.30;;;10.00;1.00;;;;;;5042415;28;20284;-60
2023/04/25 03:30:07;;;;;;;7.30;5.00;;;9.90;1.00;;;;;;5045811;28;20220;-59
2023/04/25 03:32:33;;;;;;;7.93;5.67;;;9.90;1.00;;;;;;5043810;28;20192;-59
2023/04/25 03:34:59;;;;;;;5.30;4.80;;;9.80;1.00;;;;;;5047687;28;20956;-59
2023/04/25 03:37:25;;;;;;;6.00;5.40;;;9.70;1.00;;;;;;5050640;28;20516;-58
2023/04/25 03:39:50;;;;;;;5.33;4.83;;;9.70;1.00;;;;;;5050749;28;20275;-59
2023/04/25 03:42:17;;;;;;;6.57;5.60;;;9.80;1.00;;;;;;5050606;28;20188;-61
2023/04/25 03:44:43;;;;;;;9.50;5.67;;;9.90;1.00;;;;;;5050792;28;20642;-60
2023/04/25 03:47:08;;;;;;;7.10;5.83;;;9.80;1.00;;;;;;5048729;28;20438;-59
2023/04/25 03:49:35;;;;;;;6.33;5.47;;;9.70;1.00;;;;;;5049985;28;20546;-59
2023/04/25 03:52:01;;;;;;;6.87;5.60;;;9.80;1.00;;;;;;5048805;28;20274;-60
2023/04/25 03:54:27;;;;;;;6.17;5.57;;;9.80;1.00;;;;;;5049609;28;20909;-60
2023/04/25 03:56:53;;;;;;;9.80;6.23;;;9.80;1.00;;;;;;5050265;28;20565;-60
2023/04/25 03:59:18;;;;;;;6.83;5.33;;;9.90;1.00;;;;;;5048370;28;20247;-60
2023/04/25 04:01:44;;;;;;;8.33;5.87;;;9.90;1.00;;;;;;5051916;28;20181;-60
2023/04/25 04:04:09;;;;;;;7.07;5.80;;;9.90;1.00;;;;;;5047103;28;20574;-59
2023/04/25 04:06:36;;;;;;;6.67;5.20;;;9.80;1.00;;;;;;5050445;28;20246;-58
2023/04/25 04:09:03;;;;;;;7.30;6.10;;;9.70;1.00;;;;;;5046979;28;20200;-57
2023/04/25 04:11:28;;;;;;;7.03;5.37;;;9.70;1.00;;;;;;5051250;28;20453;-57
2023/04/25 04:13:54;;;;;;;7.63;6.53;;;9.60;1.00;;;;;;5046691;28;20470;-58
2023/04/25 04:16:20;;;;;;;8.90;6.30;;;9.70;1.00;;;;;;5048561;28;20268;-59
2023/04/25 04:18:46;;;;;;;8.60;6.50;;;9.80;1.00;;;;;;5047232;28;20208;-60
2023/04/25 04:21:11;;;;;;;8.20;6.57;;;9.80;1.00;;;;;;5051408;28;20177;-60
2023/04/25 04:23:37;;;;;;;7.00;5.77;;;10.00;1.00;;;;;;5047777;28;21020;-59
2023/04/25 04:26:03;;;;;;;10.20;6.40;;;10.10;1.00;;;;;;5051061;28;20216;-62
2023/04/25 04:28:28;;;;;;;7.10;6.10;;;10.20;1.00;;;;;;5046072;28;20269;-59
2023/04/25 04:30:55;;;;;;;8.60;6.20;;;10.20;1.00;;;;;;5048594;28;20786;-59
2023/04/25 04:33:21;;;;;;;8.03;6.30;;;10.20;1.00;;;;;;5044507;28;20189;-59
2023/04/25 04:35:47;;;;;;;9.20;5.40;;;10.20;1.00;;;;;;5048644;28;20454;-61
2023/04/25 04:38:15;;;;;;;8.50;5.87;;;10.20;1.00;;;;;;5048976;28;20223;-59
2023/04/25 04:40:42;;;;;;;11.73;6.63;;;10.10;1.00;;;;;;5041614;28;22113;-60
2023/04/25 04:43:10;;;;;;;6.57;5.70;;;10.10;1.00;;;;;;5051326;28;21092;-59
2023/04/25 04:45:38;;;;;;;8.53;6.73;;;10.00;1.00;;;;;;5046465;28;20451;-60
2023/04/25 04:48:05;;;;;;;7.40;6.30;;;10.00;1.00;;;;;;5047578;28;20457;-59
2023/04/25 04:50:32;;;;;;;7.73;6.13;;;10.20;1.00;;;;;;5047509;28;20460;-58
2023/04/25 04:52:58;;;;;;;8.53;6.53;;;10.20;1.00;;;;;;5046587;28;20504;-60
2023/04/25 04:55:23;;;;;;;8.23;6.30;;;10.20;1.00;;;;;;5045685;28;20474;-59
2023/04/25 04:57:50;;;;;;;6.43;5.60;;;10.10;1.00;;;;;;5047315;28;20222;-59
2023/04/25 05:00:16;;;;;;;7.77;6.10;;;10.20;1.00;;;;;;5047569;28;20280;-60
2023/04/25 05:02:42;;;;;;;6.50;5.90;;;10.50;1.00;;;;;;5047220;28;20442;-60
2023/04/25 05:05:08;;;;;;;9.27;6.37;;;10.40;1.00;;;;;;5047603;28;20508;-60
2023/04/25 05:07:34;;;;;;;7.53;6.30;;;10.50;1.00;;;;;;5047265;28;20203;-59
2023/04/25 05:09:59;;;;;;;7.23;6.50;;;10.50;1.00;;;;;;5045385;28;20446;-60
2023/04/25 05:12:25;;;;;;;12.33;6.70;;;10.50;1.00;;;;;;5048000;28;20930;-59
2023/04/25 05:14:51;;;;;;;8.50;6.23;;;10.50;1.00;;;;;;5047189;28;20559;-60
2023/04/25 05:17:16;;;;;;;8.50;6.03;;;10.40;1.00;;;;;;5049433;28;20184;-59
2023/04/25 05:19:42;;;;;;;12.97;6.50;;;10.50;1.00;;;;;;5046141;28;20188;-60
2023/04/25 05:22:07;;;;;;;8.13;6.10;;;10.40;1.00;;;;;;5049015;28;20259;-60
2023/04/25 05:24:33;;;;;;;11.13;7.23;;;10.40;1.00;;;;;;5046916;28;20179;-59
2023/04/25 05:26:59;;;;;;;9.00;6.50;;;10.50;1.00;;;;;;5045769;28;20184;-60
2023/04/25 05:29:24;;;;;;;7.60;6.10;;;12.00;1.00;;;;;;5049965;28;20227;-59
2023/04/25 05:31:50;;;;;;;7.67;5.70;;;10.50;1.00;;;;;;5045101;28;20203;-61
2023/04/25 05:34:16;;;;;;;6.97;6.13;;;10.60;1.00;;;;;;5047899;28;20185;-60
2023/04/25 05:36:42;;;;;;;8.03;5.73;;;10.60;1.00;;;;;;5043416;28;20714;-59
2023/04/25 05:39:08;;;;;;;7.40;6.10;;;10.60;1.00;;;;;;5048483;28;20625;-61
2023/04/25 05:41:34;;;;;;;6.60;5.90;;;10.60;1.00;;;;;;5043265;28;20207;-59
2023/04/25 05:44:00;;;;;;;8.27;6.00;;;10.60;1.00;;;;;;5049480;28;20933;-58
2023/04/25 05:46:25;;;;;;;8.80;5.80;;;10.50;1.00;;;;;;5046026;28;20177;-59
2023/04/25 05:48:51;;;;;;;8.37;6.60;;;10.30;1.00;;;;;;5047301;28;20189;-60
2023/04/25 05:51:18;;;;;;;8.93;6.47;;;10.50;1.00;;;;;;5047821;28;20195;-59
2023/04/25 05:53:44;;;;;;;7.53;5.73;;;10.50;1.00;;;;;;5045938;28;20238;-59
2023/04/25 05:56:09;;;;;;;6.70;5.73;;;10.50;1.00;;;;;;5043649;28;20508;-59
2023/04/25 05:58:35;;;;;;;9.10;5.47;;;10.50;1.00;;;;;;5048004;28;20840;-61
2023/04/25 06:01:01;;;;;;;10.53;6.37;;;10.50;1.00;;;;;;5043409;28;20192;-59
2023/04/25 06:03:27;;;;;;;11.50;6.73;;;10.60;1.00;;;;;;5048038;28;20199;-58
2023/04/25 06:05:52;;;;;;;8.87;5.60;;;10.60;99.90;;;;;;5043426;28;20443;-59
2023/04/25 06:08:18;;;;;;;6.63;5.90;;;10.70;99.90;;;;;;5049024;28;20181;-59
2023/04/25 06:10:44;;;;;;;7.93;6.10;;;10.80;99.90;;;;;;5044132;28;20189;-60
2023/04/25 06:13:10;;;;;;;7.63;6.80;;;11.00;99.90;;;;;;5049223;28;20592;-59
2023/04/25 06:15:35;;;;;;;7.27;5.70;;;11.10;99.90;;;;;;5043505;28;20251;-59
2023/04/25 06:18:01;;;;;;;9.13;6.33;;;11.00;99.90;;;;;;5042966;28;20677;-59
2023/04/25 06:20:27;;;;;;;11.67;7.00;;;11.00;99.90;;;;;;5047922;28;20376;-60
2023/04/25 06:22:52;;;;;;;11.23;7.27;;;11.00;99.90;;;;;;5047262;28;20184;-59
2023/04/25 06:25:18;;;;;;;8.57;7.33;;;10.80;99.90;;;;;;5040026;28;20192;-59
2023/04/25 06:27:44;;;;;;;7.93;6.20;;;10.60;99.90;;;;;;5040889;28;20659;-60
2023/04/25 06:30:11;;;;;;;7.73;6.13;;;10.60;99.90;;;;;;5044615;28;20539;-59
2023/04/25 06:32:38;;;;;;;12.00;6.87;;;10.70;99.90;;;;;;5047684;28;20684;-59
2023/04/25 06:35:04;;;;;;;7.03;5.60;;;10.70;99.90;;;;;;5044784;28;20571;-60
2023/04/25 06:37:30;;;;;;;8.23;5.87;;;10.90;99.90;;;;;;5046819;28;20466;-61
2023/04/25 06:39:55;;;;;;;7.13;4.70;;;11.10;99.90;;;;;;5045259;28;20489;-60
2023/04/25 06:42:21;;;;;;;7.27;6.50;;;11.40;99.90;;;;;;5044345;28;20977;-60
2023/04/25 06:44:46;;;;;;;6.63;5.47;;;11.60;99.90;;;;;;5046885;28;20196;-59
2023/04/25 06:47:12;;;;;;;7.87;4.93;;;11.90;99.90;;;;;;5044313;28;20184;-61
2023/04/25 06:49:38;;;;;;;6.03;5.37;;;12.00;99.90;;;;;;5048111;28;20192;-60
2023/04/25 06:52:03;;;;;;;12.07;6.17;;;12.00;99.90;;;;;;5047164;28;20193;-59
2023/04/25 06:54:29;;;;;;;5.60;4.27;;;12.10;99.90;;;;;;5046855;28;20188;-61
2023/04/25 06:56:56;;;;;;;6.37;4.90;;;12.00;99.90;;;;;;5040520;28;20314;-59
2023/04/25 06:59:21;;;;;;;6.90;5.30;;;12.00;99.90;;;;;;5044703;28;20467;-59
2023/04/25 07:01:47;;;;;;;8.40;5.17;;;12.40;99.90;;;;;;5041160;28;21014;-59
2023/04/25 07:04:13;;;;;;;7.63;5.47;;;12.60;99.90;;;;;;5046003;28;20184;-59
2023/04/25 07:06:42;;;;;;;8.77;5.47;;;12.50;99.90;;;;;;5043789;28;20184;-59
2023/04/25 07:09:09;;;;;;;8.30;4.93;;;12.30;99.90;;;;;;5041515;28;20207;-60
2023/04/25 07:11:35;;;;;;;5.23;4.30;;;12.20;99.90;;;;;;5067242;28;20545;-59
2023/04/25 07:14:01;;;;;;;4.87;4.40;;;12.30;99.90;;;;;;5045444;28;20832;-59
2023/04/25 07:16:27;;;;;;;6.50;4.83;;;12.50;99.90;;;;;;5047251;28;20450;-59
2023/04/25 07:18:53;;;;;;;6.73;4.23;;;12.50;99.90;;;;;;5044447;28;20485;-59
2023/04/25 07:21:18;;;;;;;6.60;4.20;;;12.40;99.90;;;;;;5045898;28;20275;-59
2023/04/25 07:23:44;;;;;;;7.37;4.60;;;12.20;99.90;;;;;;5044598;28;20535;-59
2023/04/25 07:26:11;;;;;;;7.47;4.60;;;12.00;99.90;;;;;;5041067;28;20201;-59
2023/04/25 07:28:36;;;;;;;9.43;8.03;;;11.90;99.90;;;;;;5044212;28;20292;-59
2023/04/25 07:31:02;;;;;;;9.20;5.80;;;11.90;99.90;;;;;;5045345;28;20537;-59
2023/04/25 07:33:28;;;;;;;6.63;5.00;;;12.20;99.90;;;;;;5042530;28;20180;-60
2023/04/25 07:35:55;;;;;;;5.27;4.50;;;12.70;99.90;;;;;;5039469;28;20447;-60
2023/04/25 07:38:21;;;;;;;7.23;5.53;;;12.60;99.90;;;;;;5046490;28;20466;-59
2023/04/25 07:40:48;;;;;;;8.07;5.27;;;12.20;99.90;;;;;;5042404;28;20516;-59
2023/04/25 07:43:16;;;;;;;4.70;4.30;;;12.10;99.90;;;;;;5045873;28;20232;-59
2023/04/25 07:45:45;;;;;;;5.30;4.60;;;12.10;99.90;;;;;;5042381;28;20474;-58
2023/04/25 07:48:10;;;;;;;7.30;4.50;;;12.10;99.90;;;;;;5047743;28;20427;-59
2023/04/25 07:50:36;;;;;;;7.87;4.73;;;12.20;99.90;;;;;;5044414;28;20451;-59
2023/04/25 07:53:02;;;;;;;4.87;4.33;;;12.40;99.90;;;;;;5047368;28;20184;-60
2023/04/25 07:55:27;;;;;;;7.43;4.67;;;12.40;99.90;;;;;;5042408;28;20578;-59
2023/04/25 07:57:53;;;;;;;4.40;3.47;;;12.70;99.90;;;;;;5041502;28;20212;-59
2023/04/25 08:00:19;;;;;;;4.23;3.20;;;13.00;99.90;;;;;;5048054;28;20208;-59
2023/04/25 08:02:45;;;;;;;9.10;4.23;;;13.30;99.90;;;;;;5055285;28;20196;-59
2023/04/25 08:05:14;;;;;;;4.30;3.80;;;13.80;99.90;;;;;;5044447;28;20438;-60
2023/04/25 08:07:40;;;;;;;4.93;3.40;;;14.10;99.90;;;;;;5041991;28;20834;-58
2023/04/25 08:10:07;;;;;;;4.40;4.00;;;14.10;99.90;;;;;;5055433;28;20451;-59
2023/04/25 08:12:32;;;;;;;3.73;3.17;;;13.80;99.90;;;;;;5042084;28;20450;-60
2023/04/25 08:14:58;;;;;;;3.60;2.90;;;13.30;99.90;;;;;;5046294;28;20461;-59
2023/04/25 08:17:24;;;;;;;4.60;3.10;;;13.30;99.90;;;;;;5045418;28;20216;-59
2023/04/25 08:19:49;;;;;;;4.97;3.53;;;13.50;99.90;;;;;;5043175;28;20200;-60
2023/04/25 08:22:15;;;;;;;6.10;4.23;;;13.60;99.90;;;;;;5050899;28;20196;-59
2023/04/25 08:24:41;;;;;;;6.80;3.70;;;13.10;99.90;;;;;;5049065;28;20189;-58
2023/04/25 08:27:07;;;;;;;3.53;2.93;;;13.00;99.90;;;;;;5045755;28;21084;-58
2023/04/25 08:29:34;;;;;;;5.80;3.53;;;12.70;99.90;;;;;;5049574;28;20447;-58
2023/04/25 08:32:00;;;;;;;7.57;3.67;;;13.10;99.90;;;;;;5048060;28;20442;-59
2023/04/25 08:34:26;;;;;;;7.47;4.00;;;13.20;99.90;;;;;;5049903;28;20455;-60
2023/04/25 08:36:52;;;;;;;3.77;3.40;;;13.40;99.90;;;;;;5051279;28;20439;-60
2023/04/25 08:39:18;;;;;;;6.33;3.53;;;13.30;99.90;;;;;;5046813;28;20204;-60
2023/04/25 08:41:44;;;;;;;3.73;3.43;;;12.90;99.90;;;;;;5047668;28;20443;-60
2023/04/25 08:44:14;;;;;;;5.50;4.17;;;12.90;99.90;;;;;;5042486;28;20638;-59
2023/04/25 08:46:41;;;;;;;5.10;4.10;;;13.10;99.90;;;;;;5043234;28;20472;-61
2023/04/25 08:49:08;;;;;;;7.00;4.60;;;13.20;99.90;;;;;;5046213;28;20955;-61
2023/04/25 08:51:43;;;;;;;5.87;4.30;;;13.10;99.90;;;;;;5048281;28;20523;-60
2023/04/25 08:54:11;;;;;;;8.03;5.23;;;13.00;99.90;;;;;;5049072;28;20419;-61
2023/04/25 08:56:40;;;;;;;4.53;3.67;;;12.80;99.90;;;;;;5044644;28;20524;-60
2023/04/25 08:59:07;;;;;;;11.67;4.20;;;12.80;99.90;;;;;;5044851;28;20463;-60
2023/04/25 09:01:35;;;;;;;8.20;4.63;;;13.10;99.90;;;;;;5049289;28;20590;-61
2023/04/25 09:04:00;;;;;;;7.27;4.37;;;13.30;99.90;;;;;;5047684;28;20501;-60
2023/04/25 09:06:28;;;;;;;5.13;3.77;;;13.60;99.90;;;;;;5047428;28;20479;-61
2023/04/25 09:08:54;;;;;;;4.90;4.47;;;13.70;99.90;;;;;;5043968;28;20227;-60
2023/04/25 09:11:20;;;;;;;5.00;4.40;;;13.60;99.90;;;;;;5046398;28;20475;-60
2023/04/25 09:13:45;;;;;;;6.73;4.43;;;13.60;99.90;;;;;;5049928;28;20181;-60
2023/04/25 09:16:11;;;;;;;6.63;4.53;;;13.30;99.90;;;;;;5048092;28;20189;-60
2023/04/25 09:18:37;;;;;;;5.73;4.60;;;13.20;99.90;;;;;;5046154;28;21450;-60
2023/04/25 09:21:08;;;;;;;8.73;5.57;;;13.30;99.90;;;;;;5046636;28;20544;-59
2023/04/25 09:23:43;;;;;;;9.90;6.43;;;13.20;99.90;;;;;;5047668;28;20179;-60
2023/04/25 09:26:09;;;;;;;7.03;5.37;;;13.30;99.90;;;;;;5042818;28;20442;-62
2023/04/25 09:28:35;;;;;;;5.73;5.13;;;13.30;99.90;;;;;;5043475;28;20906;-62
2023/04/25 09:31:01;;;;;;;7.90;5.60;;;13.40;99.90;;;;;;5048727;28;20224;-60
2023/04/25 09:33:29;;;;;;;12.87;5.63;;;13.50;99.90;;;;;;5048177;28;20482;-61
2023/04/25 09:36:08;;;;;;;6.63;4.80;;;13.30;99.90;;;;;;5048585;28;20185;-60
2023/04/25 09:38:42;;;;;;;7.50;6.03;;;13.20;99.90;;;;;;5048555;28;20473;-60
2023/04/25 09:41:09;;;;;;;6.40;5.53;;;12.90;99.90;;;;;;5046993;28;20526;-60
2023/04/25 09:43:35;;;;;;;8.63;5.80;;;12.70;99.90;;;;;;5048228;28;20421;-60
2023/04/25 09:46:01;;;;;;;10.73;6.50;;;12.60;99.90;;;;;;5047844;28;20514;-60
2023/04/25 09:48:28;;;;;;;8.23;6.80;;;12.30;99.90;;;;;;5043630;28;20508;-60
2023/04/25 09:51:10;;;;;;;7.10;5.53;;;12.10;99.90;;;;;;5049025;28;20184;-61
2023/04/25 09:53:38;;;;;;;6.40;5.47;;;12.00;99.90;;;;;;5045901;28;20536;-60
2023/04/25 09:56:06;;;;;;;6.33;5.70;;;12.00;99.90;;;;;;5047982;28;20474;-59
2023/04/25 09:58:33;;;;;;;5.93;5.27;;;12.20;99.90;;;;;;5049379;28;20478;-59
2023/04/25 10:01:07;;;;;;;6.73;5.70;;;12.40;99.90;;;;;;5046427;28;20460;-63
2023/04/25 10:03:35;;;;;;;6.40;5.77;;;12.60;99.90;;;;;;5049617;28;20439;-62
2023/04/25 10:06:02;;;;;;;8.97;6.63;;;12.80;99.90;;;;;;5045310;28;20493;-60
2023/04/25 10:08:32;;;;;;;5.60;4.97;;;12.90;99.90;;;;;;5046909;28;20844;-61
2023/04/25 10:11:02;;;;;;;4.70;4.13;;;12.90;99.90;;;;;;5048393;28;20843;-60
2023/04/25 10:13:30;;;;;;;6.27;4.87;;;13.00;99.90;;;;;;5047329;28;20447;-61
2023/04/25 10:15:57;;;;;;;7.60;4.80;;;13.20;99.90;;;;;;5049362;28;20451;-60
2023/04/25 10:18:26;;;;;;;5.80;4.70;;;13.30;99.90;;;;;;5048988;28;20524;-62
2023/04/25 10:20:56;;;;;;;5.50;3.63;;;13.30;99.90;;;;;;5049205;28;20435;-63
2023/04/25 10:23:23;;;;;;;5.23;4.73;;;13.50;99.90;;;;;;5048239;28;20446;-61
2023/04/25 10:25:51;;;;;;;4.87;4.10;;;13.60;99.90;;;;;;5048774;28;20778;-62
2023/04/25 10:28:17;;;;;;;4.73;4.13;;;13.60;99.90;;;;;;5043934;28;20509;-61
2023/04/25 10:31:02;;;;;;;5.10;4.33;;;13.60;99.90;;;;;;5045363;28;20451;-61
2023/04/25 10:33:42;;;;;;;4.87;4.37;;;13.40;99.90;;;;;;5049174;28;20608;-62
2023/04/25 10:36:12;;;;;;;4.70;4.30;;;13.40;99.90;;;;;;5044244;28;20439;-61
2023/04/25 10:38:39;;;;;;;4.97;4.47;;;13.20;99.90;;;;;;5045058;28;20502;-60
2023/04/25 10:41:08;;;;;;;9.40;4.77;;;13.20;99.90;;;;;;5044048;28;20452;-62
2023/04/25 10:43:35;;;;;;;6.50;5.90;;;13.30;99.90;;;;;;5044519;28;20443;-60
2023/04/25 10:46:02;;;;;;;6.13;4.57;;;13.50;99.90;;;;;;5045375;28;20526;-60
2023/04/25 10:48:29;;;;;;;6.00;4.97;;;13.40;99.90;;;;;;5048307;28;20441;-60
2023/04/25 10:51:09;;;;;;;8.07;4.80;;;13.50;99.90;;;;;;5047284;28;20524;-63
2023/04/25 10:53:35;;;;;;;7.50;4.97;;;13.60;99.90;;;;;;5044463;28;20861;-59
2023/04/25 10:56:09;;;;;;;7.40;5.07;;;13.60;99.90;;;;;;5042798;28;21519;-60
2023/04/25 10:58:34;;;;;;;7.43;5.83;;;13.60;99.90;;;;;;5045086;28;20257;-60
2023/04/25 11:01:01;;;;;;;5.60;5.10;;;13.40;99.90;;;;;;5048287;28;20534;-59
2023/04/25 11:03:27;;;;;;;6.87;5.37;;;13.10;99.90;;;;;;5041414;28;20197;-60
2023/04/25 11:05:53;;;;;;;6.17;5.60;;;12.80;99.90;;;;;;5039717;28;20601;-60
2023/04/25 11:08:36;;;;;;;7.10;6.30;;;12.60;99.90;;;;;;5047729;28;20188;-59
2023/04/25 11:11:02;;;;;;;12.60;6.60;;;12.40;99.90;;;;;;5038941;28;20477;-59
2023/04/25 11:13:31;;;;;;;6.77;5.20;;;12.40;99.90;;;;;;5044032;28;20494;-59
2023/04/25 11:15:57;;;;;;;5.53;5.03;;;12.30;99.90;;;;;;5045795;28;20875;-59
2023/04/25 11:18:26;;;;;;;6.43;5.67;;;12.40;99.90;;;;;;5045049;28;20478;-60
2023/04/25 11:20:52;;;;;;;8.03;5.57;;;12.20;99.90;;;;;;5047728;28;20450;-59
2023/04/25 11:23:17;;;;;;;11.60;6.30;;;12.10;99.90;;;;;;5046160;28;20456;-59
2023/04/25 11:25:44;;;;;;;5.77;5.17;;;12.10;99.90;;;;;;5046154;28;20620;-59
2023/04/25 11:28:10;;;;;;;6.73;4.50;;;12.10;99.90;;;;;;5043662;28;22081;-59
2023/04/25 11:30:35;;;;;;;7.27;4.80;;;12.10;99.90;;;;;;5047955;28;20524;-59
2023/04/25 11:33:03;;;;;;;3.60;3.30;;;12.30;99.90;;;;;;5046254;28;20193;-59
2023/04/25 11:35:28;;;;;;;7.83;3.70;;;12.60;99.90;;;;;;5047033;28;20184;-59
2023/04/25 11:37:55;;;;;;;4.97;3.90;;;12.50;99.90;;;;;;5047293;28;20469;-60
2023/04/25 11:40:20;;;;;;;3.63;3.30;;;12.70;99.90;;;;;;5047080;28;20231;-59
2023/04/25 11:42:47;;;;;;;5.13;4.10;;;12.90;99.90;;;;;;5046598;28;20443;-59
2023/04/25 11:45:14;;;;;;;6.80;3.60;;;12.60;99.90;;;;;;5047465;28;20184;-59
2023/04/25 11:47:39;;;;;;;3.03;2.70;;;12.70;99.90;;;;;;5047010;28;20781;-59
2023/04/25 11:50:07;;;;;;;3.23;2.43;;;12.80;99.90;;;;;;5046667;28;20449;-60
2023/04/25 11:52:37;;;;;;;6.03;2.47;;;12.90;99.90;;;;;;5046142;28;20669;-60
2023/04/25 11:55:13;;;;;;;2.20;2.00;;;13.10;99.90;;;;;;5042207;28;21160;-59
2023/04/25 11:57:40;;;;;;;3.63;1.80;;;13.70;99.90;;;;;;5051146;28;20501;-59
2023/04/25 12:00:08;;;;;;;3.90;2.60;;;14.00;99.90;;;;;;5050505;28;20508;-59
2023/04/25 12:02:35;;;;;;;2.50;2.20;;;13.90;99.90;;;;;;5048608;28;20510;-59
2023/04/25 12:05:01;;;;;;;5.07;2.67;;;13.90;99.90;;;;;;5049289;28;20469;-59
2023/04/25 12:07:30;;;;;;;2.70;2.50;;;13.20;99.90;;;;;;5051637;28;20522;-59
2023/04/25 12:09:55;;;;;;;6.83;2.70;;;12.90;99.90;;;;;;5049917;28;20596;-60
2023/04/25 12:12:21;;;;;;;15.03;3.13;;;13.10;99.90;;;;;;5051666;28;20435;-59
2023/04/25 12:14:51;;;;;;;2.93;2.10;;;13.10;99.90;;;;;;5049903;28;20258;-60
2023/04/25 12:17:17;;;;;;;3.43;2.43;;;13.10;99.90;;;;;;5046638;28;20185;-59
2023/04/25 12:19:44;;;;;;;3.60;2.60;;;12.80;99.90;;;;;;5050182;28;20516;-60
2023/04/25 12:22:24;;;;;;;7.53;3.40;;;12.20;99.90;;;;;;5048497;28;20454;-59
2023/04/25 12:24:50;;;;;;;3.90;2.80;;;12.10;99.90;;;;;;5047433;28;20446;-60
2023/04/25 12:27:18;;;;;;;8.63;3.17;;;12.10;99.90;;;;;;5051259;28;20530;-60
2023/04/25 12:29:55;;;;;;;8.33;3.70;;;12.20;99.90;;;;;;5048425;28;20418;-60
2023/04/25 12:32:21;;;;;;;8.10;3.30;;;12.60;99.90;;;;;;5048352;28;20962;-60
2023/04/25 12:34:46;;;;;;;6.77;3.60;;;12.80;99.90;;;;;;5048437;28;20490;-59
2023/04/25 12:37:13;;;;;;;4.37;2.90;;;12.90;99.90;;;;;;5050785;28;20568;-59
2023/04/25 12:39:38;;;;;;;4.80;2.87;;;12.70;99.90;;;;;;5047694;28;20216;-59
2023/04/25 12:42:04;;;;;;;6.50;3.40;;;12.90;99.90;;;;;;5050690;28;20438;-60
2023/04/25 12:44:30;;;;;;;7.17;4.00;;;13.30;99.90;;;;;;5048717;28;20229;-60
2023/04/25 12:46:56;;;;;;;7.07;3.33;;;13.60;99.90;;;;;;5048023;28;20534;-59
2023/04/25 12:49:22;;;;;;;11.87;3.80;;;13.90;99.90;;;;;;5047738;28;20214;-60